Time;durP1;ratioP1;P1;durP2;ratioP2;P2;SDS_P1;SDS_P2;PMS_P1;PMS_P2;Temp;Humidity;BMP_temperature;BMP_pressure;BME280_temperature;BME280_humidity;BME280_pressure;Samples;Min_cycle;Max_cycle;Signal;HPM_P1;HPM_P2
2022/10/18 00:00:11;;;;;;;4.18;0.70;;;20.00;99.90;;;;;;5088502;28;20610;-85
2022/10/18 00:02:46;;;;;;;5.05;0.90;;;19.90;99.90;;;;;;5086668;28;20203;-90
2022/10/18 00:05:17;;;;;;;6.97;0.95;;;19.90;99.90;;;;;;5083398;28;20215;-90
2022/10/18 00:07:48;;;;;;;1.25;0.70;;;20.00;99.90;;;;;;5059918;28;20199;-84
2022/10/18 00:10:23;;;;;;;3.05;0.77;;;20.10;99.90;;;;;;5076941;28;20213;-90
2022/10/18 00:12:58;;;;;;;4.50;0.80;;;20.20;99.90;;;;;;5077901;28;20223;-88
2022/10/18 00:15:32;;;;;;;4.78;0.77;;;20.50;99.90;;;;;;5074703;28;20247;-94
2022/10/18 00:18:10;;;;;;;6.53;1.13;;;20.60;99.90;;;;;;5074489;28;20202;-91
2022/10/18 00:20:41;;;;;;;8.57;1.38;;;20.60;99.90;;;;;;5073558;28;20207;-86
2022/10/18 00:23:12;;;;;;;4.93;0.95;;;20.70;99.90;;;;;;5074264;28;20200;-88
2022/10/18 00:25:44;;;;;;;11.65;1.52;;;20.70;99.90;;;;;;5076320;28;20210;-86
2022/10/18 00:28:18;;;;;;;6.43;1.08;;;20.90;99.90;;;;;;5073429;28;20234;-90
2022/10/18 00:30:48;;;;;;;5.43;0.98;;;21.10;99.90;;;;;;5075445;28;20248;-84
2022/10/18 00:33:24;;;;;;;3.03;0.70;;;21.30;99.90;;;;;;5072677;28;20309;-87
2022/10/18 00:35:55;;;;;;;5.35;0.82;;;21.40;99.90;;;;;;5075143;28;20194;-87
2022/10/18 00:38:28;;;;;;;2.50;0.80;;;21.60;99.90;;;;;;5079219;28;20189;-86
2022/10/18 00:41:01;;;;;;;5.10;0.90;;;21.60;99.90;;;;;;5081184;28;20199;-86
2022/10/18 00:43:33;;;;;;;6.00;0.80;;;21.50;99.90;;;;;;5082423;28;20200;-87
2022/10/18 00:46:05;;;;;;;4.95;1.00;;;21.60;99.90;;;;;;5081181;28;20206;-86
2022/10/18 00:48:40;;;;;;;4.45;0.80;;;21.70;99.90;;;;;;5081202;28;20202;-86
2022/10/18 00:51:14;;;;;;;6.45;0.90;;;21.50;99.90;;;;;;5083430;28;20200;-86
2022/10/18 00:53:47;;;;;;;4.50;0.73;;;21.60;99.90;;;;;;5080033;28;20228;-85
2022/10/18 00:56:20;;;;;;;5.10;0.98;;;21.60;99.90;;;;;;5081831;28;20195;-85
2022/10/18 00:58:53;;;;;;;2.15;0.90;;;21.70;99.90;;;;;;5087924;28;20743;-87
2022/10/18 01:01:26;;;;;;;3.90;0.90;;;21.70;99.90;;;;;;5084750;28;20196;-87
2022/10/18 01:04:03;;;;;;;3.10;0.70;;;21.70;99.90;;;;;;5092728;28;20215;-88
2022/10/18 01:06:42;;;;;;;3.55;0.90;;;21.70;99.90;;;;;;5090751;28;20196;-87
2022/10/18 01:09:24;;;;;;;3.00;0.73;;;21.90;99.90;;;;;;5063133;28;20198;-91
2022/10/18 01:12:09;;;;;;;2.40;0.77;;;22.00;99.90;;;;;;5090169;28;20228;-88
2022/10/18 01:15:09;;;;;;;5.70;0.90;;;21.90;99.90;;;;;;5071969;28;20211;-90
2022/10/18 01:17:45;;;;;;;3.67;0.70;;;22.10;99.90;;;;;;5075944;28;20207;-91
2022/10/18 01:20:49;;;;;;;4.47;0.80;;;22.10;99.90;;;;;;5072011;28;20227;-92
2022/10/18 01:23:42;;;;;;;2.80;0.60;;;22.20;99.90;;;;;;5075771;28;20192;-93
2022/10/18 01:26:35;;;;;;;3.17;0.85;;;22.30;99.90;;;;;;5084676;28;20282;-89
2022/10/18 01:29:20;;;;;;;5.82;1.00;;;22.40;99.90;;;;;;5075394;28;21062;-91
2022/10/18 01:32:02;;;;;;;4.35;0.98;;;22.40;99.90;;;;;;5073434;28;20233;-94
2022/10/18 01:34:37;;;;;;;2.95;0.68;;;22.30;99.90;;;;;;5073416;28;20607;-92
2022/10/18 01:37:13;;;;;;;2.78;0.70;;;22.10;99.90;;;;;;5073924;28;21641;-92
2022/10/18 01:39:50;;;;;;;3.05;0.85;;;21.80;99.90;;;;;;5079657;28;20205;-95
2022/10/18 01:42:27;;;;;;;2.45;0.80;;;21.70;99.90;;;;;;5075565;28;20207;-91
2022/10/18 01:45:04;;;;;;;3.60;0.77;;;21.90;99.90;;;;;;5073512;28;20227;-92
2022/10/18 01:47:40;;;;;;;3.85;0.98;;;22.10;99.90;;;;;;5072491;28;20191;-91
2022/10/18 01:50:13;;;;;;;6.13;1.30;;;22.40;99.90;;;;;;5079353;28;20192;-92
2022/10/18 01:52:52;;;;;;;5.03;1.05;;;22.70;99.90;;;;;;5090293;28;20226;-91
2022/10/18 01:55:32;;;;;;;2.90;0.70;;;22.80;99.90;;;;;;5085569;28;20225;-94
2022/10/18 01:58:11;;;;;;;5.15;0.88;;;22.60;99.90;;;;;;5077903;28;20195;-90
2022/10/18 02:00:45;;;;;;;3.88;0.90;;;22.50;99.90;;;;;;5091495;28;20199;-93
2022/10/18 02:03:26;;;;;;;2.42;0.75;;;22.40;99.90;;;;;;5101779;28;20677;-91
2022/10/18 02:06:05;;;;;;;3.17;0.80;;;22.30;99.90;;;;;;5077174;28;20199;-93
2022/10/18 02:08:41;;;;;;;3.20;0.77;;;22.10;99.90;;;;;;5076562;28;20199;-91
2022/10/18 02:11:16;;;;;;;2.75;0.98;;;22.00;99.90;;;;;;5106042;28;20195;-92
2022/10/18 02:13:50;;;;;;;4.88;0.90;;;21.80;99.90;;;;;;5061621;28;20230;-94
2022/10/18 02:16:28;;;;;;;5.85;0.77;;;21.70;99.90;;;;;;5096606;28;20219;-93
2022/10/18 02:19:09;;;;;;;5.40;1.10;;;21.60;99.90;;;;;;5073192;28;20881;-92
2022/10/18 02:21:45;;;;;;;6.57;1.02;;;21.40;99.90;;;;;;5093474;28;20188;-87
2022/10/18 02:24:19;;;;;;;4.35;0.90;;;21.20;99.90;;;;;;5084156;28;20216;-88
2022/10/18 02:26:54;;;;;;;5.03;0.98;;;21.10;99.90;;;;;;5057351;28;20267;-92
2022/10/18 02:29:26;;;;;;;4.20;0.88;;;21.00;99.90;;;;;;5088608;28;20194;-92
2022/10/18 02:32:09;;;;;;;5.03;1.10;;;20.90;99.90;;;;;;5075822;28;20603;-90
2022/10/18 02:34:49;;;;;;;5.65;1.10;;;20.90;99.90;;;;;;5093471;28;20211;-93
2022/10/18 02:37:24;;;;;;;3.05;0.55;;;20.80;99.90;;;;;;5079951;28;20199;-92
2022/10/18 02:39:58;;;;;;;4.10;0.73;;;20.80;99.90;;;;;;5092265;28;20194;-92
2022/10/18 02:42:37;;;;;;;4.93;1.08;;;20.80;99.90;;;;;;5092063;28;20283;-92
2022/10/18 02:45:11;;;;;;;6.22;0.90;;;20.80;99.90;;;;;;5079945;28;20509;-93
2022/10/18 02:47:43;;;;;;;4.35;0.93;;;20.90;99.90;;;;;;5082947;28;20566;-96
2022/10/18 02:50:20;;;;;;;5.47;1.05;;;20.90;99.90;;;;;;5081379;28;20299;-93
2022/10/18 02:52:52;;;;;;;7.05;1.00;;;21.00;99.90;;;;;;5097737;28;20195;-93
2022/10/18 02:55:26;;;;;;;5.45;0.90;;;21.10;99.90;;;;;;5096950;28;20234;-92
2022/10/18 02:57:57;;;;;;;3.28;0.82;;;21.10;99.90;;;;;;5097164;28;20196;-88
2022/10/18 03:00:33;;;;;;;8.43;1.30;;;20.90;99.90;;;;;;5104943;28;20195;-87
2022/10/18 03:03:07;;;;;;;3.83;0.90;;;20.90;99.90;;;;;;5093768;28;20274;-86
2022/10/18 03:05:41;;;;;;;4.85;1.10;;;20.90;99.90;;;;;;5075481;28;20237;-88
2022/10/18 03:08:14;;;;;;;4.80;1.05;;;20.90;99.90;;;;;;5076968;28;20685;-87
2022/10/18 03:10:48;;;;;;;2.90;0.70;;;20.90;99.90;;;;;;5091954;28;20195;-87
2022/10/18 03:13:20;;;;;;;7.03;1.02;;;20.90;99.90;;;;;;5094903;28;20296;-87
2022/10/18 03:15:52;;;;;;;6.15;1.10;;;20.90;99.90;;;;;;5113451;28;20219;-88
2022/10/18 03:18:24;;;;;;;3.20;0.90;;;20.80;99.90;;;;;;5089838;28;20194;-91
2022/10/18 03:20:59;;;;;;;5.63;1.08;;;20.90;99.90;;;;;;5081425;28;20196;-88
2022/10/18 03:23:32;;;;;;;5.43;0.73;;;20.90;99.90;;;;;;5072655;28;20244;-89
2022/10/18 03:26:04;;;;;;;5.00;0.90;;;20.80;99.90;;;;;;5090175;28;20307;-91
2022/10/18 03:28:35;;;;;;;6.20;1.13;;;20.70;99.90;;;;;;5080064;28;20195;-85
2022/10/18 03:31:11;;;;;;;7.00;1.00;;;20.70;99.90;;;;;;5093351;28;20312;-87
2022/10/18 03:33:42;;;;;;;4.80;0.85;;;20.70;99.90;;;;;;5088166;28;20222;-86
2022/10/18 03:36:16;;;;;;;3.58;0.85;;;20.60;99.90;;;;;;5093866;28;20187;-87
2022/10/18 03:38:47;;;;;;;4.15;1.00;;;20.60;99.90;;;;;;5088497;28;20195;-87
2022/10/18 03:41:18;;;;;;;7.70;1.40;;;20.50;99.90;;;;;;5094547;28;20210;-86
2022/10/18 03:43:49;;;;;;;7.18;1.02;;;20.50;99.90;;;;;;5093855;28;20553;-86
2022/10/18 03:46:21;;;;;;;4.38;1.02;;;20.50;99.90;;;;;;5129865;22;20232;-92
2022/10/18 03:48:53;;;;;;;5.28;1.30;;;20.40;99.90;;;;;;5077246;28;20570;-93
2022/10/18 03:51:30;;;;;;;6.45;1.17;;;20.40;99.90;;;;;;5079782;28;20731;-93
2022/10/18 03:54:02;;;;;;;5.93;0.95;;;20.40;99.90;;;;;;5066971;28;20220;-94
2022/10/18 03:56:34;;;;;;;5.82;1.20;;;20.40;99.90;;;;;;5080251;28;20221;-92
2022/10/18 03:59:06;;;;;;;6.32;1.27;;;20.40;99.90;;;;;;5064955;28;20680;-92
2022/10/18 04:01:39;;;;;;;6.85;1.00;;;20.40;99.90;;;;;;5090458;28;20237;-93
2022/10/18 04:04:11;;;;;;;7.10;1.17;;;20.40;99.90;;;;;;5074443;28;20195;-93
2022/10/18 04:06:48;;;;;;;6.28;1.15;;;20.40;99.90;;;;;;5075641;28;20203;-93
2022/10/18 04:09:20;;;;;;;7.50;1.40;;;20.40;99.90;;;;;;5079471;28;20208;-92
2022/10/18 04:11:53;;;;;;;5.65;0.90;;;20.30;99.90;;;;;;5080345;28;20227;-92
2022/10/18 04:14:25;;;;;;;3.08;0.95;;;20.30;99.90;;;;;;5077835;28;20211;-92
2022/10/18 04:16:58;;;;;;;2.50;0.90;;;20.20;99.90;;;;;;5066320;28;20579;-95
2022/10/18 04:19:29;;;;;;;5.05;1.23;;;20.20;99.90;;;;;;5078871;28;20211;-93
2022/10/18 04:22:04;;;;;;;4.53;1.00;;;20.20;99.90;;;;;;5080144;28;20204;-93
2022/10/18 04:24:37;;;;;;;5.70;1.30;;;20.20;99.90;;;;;;5080637;28;20203;-92
2022/10/18 04:27:12;;;;;;;5.80;1.08;;;20.30;99.90;;;;;;5091378;28;20200;-92
2022/10/18 04:29:44;;;;;;;7.40;1.10;;;20.30;99.90;;;;;;5077195;28;20199;-91
2022/10/18 04:32:17;;;;;;;6.50;1.15;;;20.30;99.90;;;;;;5092191;28;20195;-92
2022/10/18 04:34:51;;;;;;;3.97;1.02;;;20.40;99.90;;;;;;5069095;28;20217;-92
2022/10/18 04:37:26;;;;;;;4.25;0.90;;;20.50;99.90;;;;;;5071698;28;20217;-93
2022/10/18 04:39:58;;;;;;;6.45;1.10;;;20.50;99.90;;;;;;5063294;28;20205;-93
2022/10/18 04:42:29;;;;;;;4.72;1.20;;;20.50;99.90;;;;;;5058616;28;20206;-92
2022/10/18 04:45:00;;;;;;;4.47;1.10;;;20.40;99.90;;;;;;5069633;28;20206;-92
2022/10/18 04:47:32;;;;;;;6.68;1.15;;;20.30;99.90;;;;;;5076340;28;20242;-91
2022/10/18 04:50:04;;;;;;;3.45;0.93;;;20.30;99.90;;;;;;5075400;28;20287;-93
2022/10/18 04:52:38;;;;;;;4.68;1.00;;;20.30;99.90;;;;;;5093907;28;20206;-93
2022/10/18 04:55:11;;;;;;;5.03;1.15;;;20.30;99.90;;;;;;5090483;28;20234;-93
2022/10/18 04:57:43;;;;;;;5.85;1.25;;;20.30;99.90;;;;;;5085356;28;20183;-93
2022/10/18 05:00:16;;;;;;;4.60;1.13;;;20.40;99.90;;;;;;5077908;28;20248;-91
2022/10/18 05:02:48;;;;;;;3.85;1.05;;;20.30;99.90;;;;;;5076699;28;20224;-93
2022/10/18 05:05:21;;;;;;;6.00;1.60;;;20.30;99.90;;;;;;5080325;28;20200;-91
2022/10/18 05:07:56;;;;;;;9.63;1.38;;;20.30;99.90;;;;;;5078268;28;20212;-93
2022/10/18 05:10:27;;;;;;;6.05;1.08;;;20.30;99.90;;;;;;5069545;28;20204;-92
2022/10/18 05:12:59;;;;;;;4.22;0.90;;;20.30;99.90;;;;;;5061585;28;20204;-92
2022/10/18 05:15:35;;;;;;;5.15;1.10;;;20.20;99.90;;;;;;5079888;28;20230;-92
2022/10/18 05:18:10;;;;;;;5.53;1.20;;;20.20;99.90;;;;;;5081571;28;20203;-92
2022/10/18 05:20:43;;;;;;;4.97;1.05;;;20.20;99.90;;;;;;5067266;28;20307;-93
2022/10/18 05:23:18;;;;;;;3.72;0.80;;;20.30;99.90;;;;;;5073616;28;20272;-93
2022/10/18 05:25:51;;;;;;;5.28;1.20;;;20.20;99.90;;;;;;5065053;28;20279;-92
2022/10/18 05:28:23;;;;;;;6.07;1.38;;;20.10;99.90;;;;;;5074648;28;20676;-92
2022/10/18 05:30:54;;;;;;;6.03;1.30;;;20.10;99.90;;;;;;5074336;28;20624;-92
2022/10/18 05:33:26;;;;;;;6.82;1.20;;;20.20;99.90;;;;;;5070163;28;20264;-93
2022/10/18 05:35:59;;;;;;;6.15;1.10;;;20.20;99.90;;;;;;5074578;28;20227;-93
2022/10/18 05:38:35;;;;;;;4.65;0.90;;;20.10;99.90;;;;;;5058920;28;20203;-92
2022/10/18 05:41:08;;;;;;;4.47;1.35;;;20.10;99.90;;;;;;5074217;28;20203;-92
2022/10/18 05:43:40;;;;;;;3.42;1.00;;;20.10;99.90;;;;;;5075441;28;20187;-92
2022/10/18 05:46:13;;;;;;;5.22;1.60;;;20.20;99.90;;;;;;5080324;28;20240;-93
2022/10/18 05:48:46;;;;;;;5.30;1.00;;;20.20;99.90;;;;;;5070834;28;20204;-93
2022/10/18 05:51:17;;;;;;;5.03;1.20;;;20.20;99.90;;;;;;5073966;28;20725;-93
2022/10/18 05:53:53;;;;;;;6.57;1.27;;;20.20;99.90;;;;;;5075308;28;20208;-93
2022/10/18 05:56:24;;;;;;;5.78;1.38;;;20.20;99.90;;;;;;5074316;28;20273;-93
2022/10/18 05:58:59;;;;;;;2.33;0.98;;;20.30;99.90;;;;;;5057644;28;20198;-94
2022/10/18 06:01:33;;;;;;;7.78;1.45;;;20.30;99.90;;;;;;5073531;28;20195;-92
2022/10/18 06:04:04;;;;;;;4.95;1.00;;;20.20;99.90;;;;;;5067997;28;20195;-91
2022/10/18 06:06:38;;;;;;;7.75;1.52;;;20.30;99.90;;;;;;5065703;28;20551;-94
2022/10/18 06:09:14;;;;;;;4.07;1.20;;;20.30;99.90;;;;;;5074732;28;20208;-91
2022/10/18 06:11:48;;;;;;;6.70;1.33;;;20.30;99.90;;;;;;5073775;28;20199;-92
2022/10/18 06:14:19;;;;;;;4.60;1.00;;;20.20;99.90;;;;;;5076888;28;20207;-92
2022/10/18 06:16:51;;;;;;;6.30;1.20;;;20.20;99.90;;;;;;5079921;28;20191;-91
2022/10/18 06:19:24;;;;;;;5.03;1.00;;;20.20;99.90;;;;;;5068559;28;20208;-92
2022/10/18 06:21:58;;;;;;;8.00;1.38;;;20.20;99.90;;;;;;5068817;28;20202;-93
2022/10/18 06:24:32;;;;;;;4.50;1.15;;;20.20;99.90;;;;;;5074353;28;20240;-91
2022/10/18 06:27:08;;;;;;;7.53;1.35;;;20.20;99.90;;;;;;5060141;28;20203;-92
2022/10/18 06:29:39;;;;;;;5.15;1.50;;;20.20;99.90;;;;;;5074327;28;20264;-91
2022/10/18 06:32:11;;;;;;;4.82;1.02;;;20.20;99.90;;;;;;5074100;28;20291;-92
2022/10/18 06:34:43;;;;;;;5.18;1.15;;;20.10;99.90;;;;;;5070997;28;20230;-92
2022/10/18 06:37:16;;;;;;;5.93;1.48;;;20.10;99.90;;;;;;5074516;28;20226;-92
2022/10/18 06:39:52;;;;;;;6.18;1.27;;;20.10;99.90;;;;;;5069608;28;20653;-92
2022/10/18 06:42:24;;;;;;;7.78;1.10;;;20.10;99.90;;;;;;5056203;28;20777;-92
2022/10/18 06:44:56;;;;;;;5.10;1.20;;;20.10;99.90;;;;;;5062170;28;20200;-93
2022/10/18 06:47:30;;;;;;;5.75;1.20;;;20.10;99.90;;;;;;5075264;28;20227;-91
2022/10/18 06:50:02;;;;;;;4.85;1.10;;;20.10;99.90;;;;;;5071976;28;20569;-94
2022/10/18 06:52:37;;;;;;;5.18;1.30;;;20.20;99.90;;;;;;5063158;28;20203;-92
2022/10/18 06:55:13;;;;;;;5.32;1.10;;;20.10;99.90;;;;;;5060678;28;20225;-93
2022/10/18 06:57:46;;;;;;;5.47;1.40;;;20.10;99.90;;;;;;5071303;28;20297;-93
2022/10/18 07:00:18;;;;;;;4.95;0.98;;;20.10;99.90;;;;;;5058711;28;20242;-91
2022/10/18 07:02:52;;;;;;;7.15;1.10;;;20.00;99.90;;;;;;5057852;28;20220;-92
2022/10/18 07:05:24;;;;;;;5.68;1.10;;;20.00;99.90;;;;;;5055848;28;20207;-93
2022/10/18 07:07:58;;;;;;;4.72;1.10;;;20.00;99.90;;;;;;5057085;28;20212;-93
2022/10/18 07:10:49;;;;;;;4.15;1.00;;;20.00;99.90;;;;;;5067476;28;20204;-96
2022/10/18 07:13:20;;;;;;;6.75;1.17;;;20.00;99.90;;;;;;5076175;28;20208;-92
2022/10/18 07:15:52;;;;;;;4.75;1.13;;;19.90;99.90;;;;;;5075579;28;20554;-93
2022/10/18 07:18:25;;;;;;;6.63;1.40;;;19.90;99.90;;;;;;5066606;28;20265;-92
2022/10/18 07:20:57;;;;;;;4.80;1.23;;;19.90;99.90;;;;;;5079405;28;20229;-92
2022/10/18 07:23:31;;;;;;;5.38;1.45;;;20.00;99.90;;;;;;5075165;28;20310;-94
2022/10/18 07:26:06;;;;;;;4.35;1.20;;;20.00;99.90;;;;;;5076689;28;20204;-93
2022/10/18 07:28:38;;;;;;;5.68;1.17;;;20.00;99.90;;;;;;5080693;28;20203;-93
2022/10/18 07:31:12;;;;;;;8.10;1.30;;;20.00;99.90;;;;;;5100476;28;20226;-94
2022/10/18 07:33:44;;;;;;;6.15;2.20;;;20.00;99.90;;;;;;5076563;28;20575;-95
2022/10/18 07:36:15;;;;;;;9.32;2.25;;;20.00;99.90;;;;;;5078157;28;20749;-93
2022/10/18 07:38:48;;;;;;;6.22;1.50;;;19.90;99.90;;;;;;5071120;28;20203;-94
2022/10/18 07:41:32;;;;;;;3.92;1.20;;;19.90;99.90;;;;;;5095107;28;20234;-96
2022/10/18 07:44:05;;;;;;;4.78;1.77;;;19.90;99.90;;;;;;5073290;28;20196;-94
2022/10/18 07:46:36;;;;;;;6.80;2.60;;;19.90;99.90;;;;;;5074544;28;20229;-94
2022/10/18 07:49:08;;;;;;;5.68;1.60;;;19.90;99.90;;;;;;5071326;28;20279;-95
2022/10/18 07:51:42;;;;;;;6.47;1.60;;;19.90;99.90;;;;;;5061257;28;20224;-94
2022/10/18 07:54:14;;;;;;;4.70;1.17;;;19.90;99.90;;;;;;5094442;28;20651;-94
2022/10/18 07:56:47;;;;;;;4.38;1.20;;;20.00;99.90;;;;;;5100027;28;20230;-95
2022/10/18 07:59:18;;;;;;;4.05;0.90;;;20.00;99.90;;;;;;5088613;28;20229;-93
2022/10/18 08:01:49;;;;;;;4.05;1.10;;;20.00;99.90;;;;;;5085766;28;20206;-93
2022/10/18 08:04:21;;;;;;;6.57;1.50;;;20.00;99.90;;;;;;5080800;28;20204;-95
2022/10/18 08:06:52;;;;;;;5.93;1.40;;;20.00;99.90;;;;;;5081278;28;20204;-95
2022/10/18 08:09:23;;;;;;;6.47;1.10;;;19.90;99.90;;;;;;5079809;28;20548;-94
2022/10/18 08:11:57;;;;;;;4.88;1.10;;;20.00;99.90;;;;;;5081397;28;20212;-94
2022/10/18 08:14:28;;;;;;;7.57;1.40;;;20.00;99.90;;;;;;5086808;28;20204;-95
2022/10/18 08:16:59;;;;;;;8.45;1.33;;;19.90;99.90;;;;;;5081070;28;20212;-93
2022/10/18 08:19:31;;;;;;;4.78;1.23;;;19.90;99.90;;;;;;5079416;28;20204;-94
2022/10/18 08:22:03;;;;;;;12.02;1.88;;;19.90;99.90;;;;;;5075929;28;20579;-94
2022/10/18 08:24:34;;;;;;;6.43;1.40;;;19.80;99.90;;;;;;5076090;28;20289;-95
2022/10/18 08:27:08;;;;;;;8.07;1.42;;;19.80;99.90;;;;;;5080928;28;20608;-93
2022/10/18 08:29:39;;;;;;;6.32;1.23;;;19.80;99.90;;;;;;5079374;28;20270;-94
2022/10/18 08:32:11;;;;;;;5.57;1.35;;;19.70;99.90;;;;;;5083626;28;20447;-93
2022/10/18 08:34:43;;;;;;;4.40;1.40;;;19.80;99.90;;;;;;5062336;28;20291;-94
2022/10/18 08:37:14;;;;;;;6.28;1.35;;;19.80;99.90;;;;;;5058953;28;20227;-95
2022/10/18 08:39:46;;;;;;;5.07;1.05;;;19.70;99.90;;;;;;5077734;28;20212;-94
2022/10/18 08:42:42;;;;;;;4.10;1.13;;;19.70;99.90;;;;;;5086851;28;20200;-93
2022/10/18 08:45:14;;;;;;;6.75;1.10;;;19.70;99.90;;;;;;5099956;28;20219;-94
2022/10/18 08:47:50;;;;;;;6.95;1.33;;;19.70;99.90;;;;;;5081624;28;20661;-94
2022/10/18 08:50:24;;;;;;;8.50;1.33;;;19.70;99.90;;;;;;5060762;28;20649;-93
2022/10/18 08:53:06;;;;;;;5.53;1.33;;;19.70;99.90;;;;;;5057075;28;20214;-93
2022/10/18 08:55:45;;;;;;;4.32;1.02;;;19.70;99.90;;;;;;5073284;28;20227;-95
2022/10/18 08:58:26;;;;;;;3.65;1.10;;;19.70;99.90;;;;;;5078236;28;20349;-95
2022/10/18 09:01:04;;;;;;;4.28;1.30;;;19.70;99.90;;;;;;5076358;28;20208;-95
2022/10/18 09:03:51;;;;;;;3.60;1.27;;;19.70;99.90;;;;;;5071659;28;20214;-94
2022/10/18 09:06:33;;;;;;;5.40;1.20;;;19.70;99.90;;;;;;5062556;28;20207;-94
2022/10/18 09:09:22;;;;;;;6.63;1.48;;;19.80;99.90;;;;;;5067807;28;20275;-96
2022/10/18 09:12:05;;;;;;;4.40;1.08;;;19.80;99.90;;;;;;5077370;28;20211;-94
2022/10/18 09:14:52;;;;;;;5.65;1.20;;;19.80;99.90;;;;;;5078237;28;20199;-94
2022/10/18 09:17:35;;;;;;;6.13;1.40;;;19.80;99.90;;;;;;5071961;28;20231;-94
2022/10/18 09:20:16;;;;;;;4.47;1.23;;;19.80;99.90;;;;;;5077770;28;20204;-94
2022/10/18 09:22:58;;;;;;;4.28;1.30;;;19.70;99.90;;;;;;5092162;28;20211;-93
2022/10/18 09:25:35;;;;;;;5.05;1.05;;;19.70;99.90;;;;;;5077669;28;20222;-94
2022/10/18 09:28:21;;;;;;;7.38;1.95;;;19.70;99.90;;;;;;5074536;28;20200;-93
2022/10/18 09:31:02;;;;;;;7.05;1.50;;;19.80;99.90;;;;;;5072948;28;20203;-94
2022/10/18 09:33:44;;;;;;;5.30;1.50;;;19.70;99.90;;;;;;5073730;28;20398;-94
2022/10/18 09:36:22;;;;;;;4.32;1.30;;;19.70;99.90;;;;;;5076211;28;20238;-94
2022/10/18 09:38:57;;;;;;;6.18;1.38;;;19.70;99.90;;;;;;5075690;28;20286;-94
2022/10/18 09:41:31;;;;;;;4.35;1.27;;;19.70;99.90;;;;;;5076964;28;20210;-94
2022/10/18 09:44:07;;;;;;;9.48;1.42;;;19.70;99.90;;;;;;5075401;28;20208;-94
2022/10/18 09:46:42;;;;;;;6.75;1.52;;;19.70;99.90;;;;;;5075294;28;20231;-94
2022/10/18 09:49:20;;;;;;;5.28;1.33;;;19.70;99.90;;;;;;5073437;28;20487;-94
2022/10/18 09:51:53;;;;;;;7.10;1.58;;;19.70;99.90;;;;;;5088633;28;20265;-94
2022/10/18 09:54:33;;;;;;;8.30;1.65;;;19.70;99.90;;;;;;5068626;28;20604;-94
2022/10/18 09:57:13;;;;;;;5.85;1.33;;;19.70;99.90;;;;;;5062428;28;20223;-93
2022/10/18 09:59:46;;;;;;;8.02;1.90;;;19.70;99.90;;;;;;5056675;28;20414;-95
2022/10/18 10:02:36;;;;;;;4.57;1.27;;;19.70;99.90;;;;;;5068781;28;20214;-96
2022/10/18 10:05:14;;;;;;;6.60;1.52;;;19.70;99.90;;;;;;5073525;28;20199;-96
2022/10/18 10:07:46;;;;;;;6.63;1.60;;;19.70;99.90;;;;;;5074617;28;20200;-95
2022/10/18 10:10:23;;;;;;;6.50;1.60;;;19.70;99.90;;;;;;5076095;28;20208;-95
2022/10/18 10:13:14;;;;;;;5.50;1.38;;;19.70;99.90;;;;;;5066946;28;20200;-94
2022/10/18 10:15:55;;;;;;;7.65;1.80;;;19.70;99.90;;;;;;5074668;28;20715;-93
2022/10/18 10:18:34;;;;;;;7.75;1.80;;;19.70;99.90;;;;;;5074002;28;20216;-94
2022/10/18 10:21:07;;;;;;;9.52;1.70;;;19.70;99.90;;;;;;5060343;28;20211;-92
2022/10/18 10:23:42;;;;;;;8.18;2.13;;;19.70;99.90;;;;;;5066398;28;20215;-93
2022/10/18 10:26:27;;;;;;;4.00;1.17;;;19.70;99.90;;;;;;5062713;28;20191;-93
2022/10/18 10:28:58;;;;;;;6.82;1.33;;;19.70;99.90;;;;;;5077948;28;20252;-93
2022/10/18 10:31:33;;;;;;;7.38;1.77;;;19.70;99.90;;;;;;5078669;28;20200;-93
2022/10/18 10:34:24;;;;;;;9.05;1.63;;;19.70;99.90;;;;;;5077067;28;20286;-93
2022/10/18 10:36:56;;;;;;;6.45;1.98;;;19.70;99.90;;;;;;5082419;28;20778;-94
2022/10/18 10:39:29;;;;;;;9.02;2.20;;;19.70;99.90;;;;;;5080195;28;20211;-93
2022/10/18 10:42:02;;;;;;;6.68;1.80;;;19.70;99.90;;;;;;5084926;28;20230;-90
2022/10/18 10:44:37;;;;;;;6.32;1.52;;;19.70;99.90;;;;;;5108434;28;20747;-90
2022/10/18 10:47:09;;;;;;;7.18;1.50;;;19.70;99.90;;;;;;5108980;28;20295;-90
2022/10/18 10:49:49;;;;;;;3.95;1.45;;;19.70;99.90;;;;;;5087227;28;20222;-93
2022/10/18 10:52:22;;;;;;;7.25;1.65;;;19.70;99.90;;;;;;5060801;28;20205;-94
2022/10/18 10:54:55;;;;;;;9.90;1.90;;;19.70;99.90;;;;;;5076909;28;20228;-95
2022/10/18 10:57:31;;;;;;;8.13;1.40;;;19.70;99.90;;;;;;5080016;28;20277;-94
2022/10/18 11:00:03;;;;;;;4.18;1.60;;;19.70;99.90;;;;;;5079847;28;20199;-93
2022/10/18 11:02:35;;;;;;;5.15;1.48;;;19.70;99.90;;;;;;5078360;28;20224;-93
2022/10/18 11:05:28;;;;;;;5.40;1.50;;;19.70;99.90;;;;;;5078821;28;20200;-94
2022/10/18 11:08:02;;;;;;;5.90;1.25;;;19.70;99.90;;;;;;5078202;28;20188;-94
2022/10/18 11:10:42;;;;;;;8.63;1.45;;;19.70;99.90;;;;;;5073045;28;20660;-94
2022/10/18 11:13:27;;;;;;;11.30;2.10;;;19.70;99.90;;;;;;5062632;28;20199;-93
2022/10/18 11:16:09;;;;;;;7.82;1.50;;;19.70;99.90;;;;;;5059488;28;20238;-94
2022/10/18 11:18:42;;;;;;;3.90;1.17;;;19.60;99.90;;;;;;5098431;28;20203;-92
2022/10/18 11:21:22;;;;;;;7.90;1.40;;;19.60;99.90;;;;;;5099434;28;20616;-94
2022/10/18 11:23:53;;;;;;;6.55;1.60;;;19.70;99.90;;;;;;5099419;28;20291;-94
2022/10/18 11:26:45;;;;;;;4.72;1.23;;;19.70;99.90;;;;;;5099809;28;20209;-93
2022/10/18 11:29:42;;;;;;;6.47;1.58;;;19.70;99.90;;;;;;5077474;28;20207;-94
2022/10/18 11:32:25;;;;;;;4.68;1.40;;;19.60;99.90;;;;;;5068330;28;20204;-93
2022/10/18 11:35:15;;;;;;;6.55;1.45;;;19.60;99.90;;;;;;5079059;28;20208;-93
2022/10/18 11:38:13;;;;;;;6.13;1.35;;;19.60;99.90;;;;;;5078802;28;20224;-93
2022/10/18 11:40:57;;;;;;;8.60;1.90;;;19.60;99.90;;;;;;5077628;28;20204;-92
2022/10/18 11:43:37;;;;;;;6.13;1.67;;;19.60;99.90;;;;;;5077825;28;20278;-92
2022/10/18 11:46:16;;;;;;;4.85;1.30;;;19.60;99.90;;;;;;5092061;28;20229;-94
2022/10/18 11:49:03;;;;;;;6.50;1.40;;;19.50;99.90;;;;;;5066357;28;20200;-93
2022/10/18 11:51:46;;;;;;;6.78;1.67;;;19.50;99.90;;;;;;5079239;28;20199;-94
2022/10/18 11:54:36;;;;;;;5.38;1.40;;;19.50;99.90;;;;;;5097830;28;20278;-93
2022/10/18 11:57:19;;;;;;;7.72;1.50;;;19.50;99.90;;;;;;5090195;28;20215;-93
2022/10/18 11:59:59;;;;;;;6.82;1.30;;;19.50;99.90;;;;;;5076160;28;20196;-93
2022/10/18 12:03:16;;;;;;;4.22;1.05;;;19.50;99.90;;;;;;5075332;28;20207;-94
2022/10/18 12:05:51;;;;;;;6.32;1.50;;;19.50;99.90;;;;;;5035275;28;20231;-92
2022/10/18 12:08:35;;;;;;;5.55;1.33;;;19.50;99.90;;;;;;5041639;28;20330;-94
2022/10/18 12:11:16;;;;;;;6.68;1.42;;;19.50;99.90;;;;;;5070338;28;20275;-92
2022/10/18 12:13:53;;;;;;;8.13;1.50;;;19.50;99.90;;;;;;5076057;28;20295;-93
2022/10/18 12:16:27;;;;;;;4.97;1.30;;;19.50;99.90;;;;;;5074999;28;20240;-92
2022/10/18 12:19:02;;;;;;;6.20;1.10;;;19.50;99.90;;;;;;5068445;28;20212;-93
2022/10/18 12:21:36;;;;;;;4.82;1.30;;;19.50;99.90;;;;;;5058232;28;20196;-94
2022/10/18 12:24:10;;;;;;;7.93;1.58;;;19.50;99.90;;;;;;5057852;28;20196;-94
2022/10/18 12:26:47;;;;;;;7.35;1.55;;;19.40;99.90;;;;;;5107173;28;20206;-92
2022/10/18 12:29:29;;;;;;;6.68;1.40;;;19.40;99.90;;;;;;5112119;28;20227;-93
2022/10/18 12:32:04;;;;;;;7.35;1.73;;;19.40;99.90;;;;;;5090020;28;20215;-93
2022/10/18 12:34:43;;;;;;;6.13;1.33;;;19.40;99.90;;;;;;5083626;28;20658;-92
2022/10/18 12:37:37;;;;;;;5.65;1.38;;;19.40;99.90;;;;;;5060637;28;20303;-93
2022/10/18 12:40:14;;;;;;;4.88;1.40;;;19.40;99.90;;;;;;5070010;28;20200;-93
2022/10/18 12:42:49;;;;;;;4.20;1.35;;;19.40;99.90;;;;;;5077561;28;20211;-93
2022/10/18 12:45:32;;;;;;;4.15;1.08;;;19.40;99.90;;;;;;5056681;28;20200;-93
2022/10/18 12:48:07;;;;;;;5.70;1.27;;;19.40;99.90;;;;;;5073049;28;20232;-92
2022/10/18 12:50:42;;;;;;;5.05;1.20;;;19.40;99.90;;;;;;5076072;28;20578;-93
2022/10/18 12:53:28;;;;;;;6.53;1.40;;;19.40;99.90;;;;;;5066448;28;20204;-95
2022/10/18 12:56:20;;;;;;;5.15;1.08;;;19.40;99.90;;;;;;5056709;28;20261;-93
2022/10/18 12:59:15;;;;;;;5.75;1.50;;;19.40;99.90;;;;;;5081241;28;20203;-92
2022/10/18 13:02:22;;;;;;;4.80;1.00;;;19.30;99.90;;;;;;5087986;28;20214;-93
2022/10/18 13:04:55;;;;;;;3.95;1.20;;;19.40;99.90;;;;;;5076598;28;20211;-93
2022/10/18 13:07:47;;;;;;;7.40;1.33;;;19.30;99.90;;;;;;5076296;28;20196;-93
2022/10/18 13:10:44;;;;;;;6.78;1.45;;;19.40;99.90;;;;;;5073819;28;20207;-93
2022/10/18 13:13:47;;;;;;;4.65;1.23;;;19.30;99.90;;;;;;5076857;28;20208;-94
2022/10/18 13:16:43;;;;;;;6.25;1.35;;;19.40;99.90;;;;;;5059086;28;20204;-93
2022/10/18 13:19:36;;;;;;;3.58;1.27;;;19.30;99.90;;;;;;5076268;28;20219;-93
2022/10/18 13:22:28;;;;;;;7.57;1.40;;;19.30;99.90;;;;;;5076491;28;20228;-92
2022/10/18 13:25:05;;;;;;;5.95;1.13;;;19.30;99.90;;;;;;5076188;28;20656;-93
2022/10/18 13:27:46;;;;;;;5.00;1.30;;;19.20;99.90;;;;;;5062416;28;20204;-92
2022/10/18 13:30:47;;;;;;;6.07;1.33;;;19.20;99.90;;;;;;5067646;28;20199;-93
2022/10/18 13:33:39;;;;;;;5.50;1.35;;;19.20;99.90;;;;;;5085227;28;20209;-92